createdAt,value
2019-05-07T00:01:24.051Z,99288.22
2019-05-07T00:06:29.601Z,99291.17
2019-05-07T00:11:35.173Z,99287.67
2019-05-07T00:16:42.449Z,99285.97
2019-05-07T00:21:47.888Z,99291.11
2019-05-07T00:26:54.027Z,99287.88
2019-05-07T00:32:02.265Z,99288.05
2019-05-07T00:37:22.042Z,99291.99
2019-05-07T00:42:32.907Z,99270.09
2019-05-07T00:47:42.616Z,99287.19
2019-05-07T00:52:47.848Z,99289.66
2019-05-07T00:57:53.322Z,99281.91
2019-05-07T01:02:59.159Z,99285.98
2019-05-07T01:08:05.839Z,99289.77
2019-05-07T01:13:12.567Z,99286.91
2019-05-07T01:18:18.712Z,99278.13
2019-05-07T01:23:25.322Z,99271.87
2019-05-07T01:28:32.956Z,99278.33
2019-05-07T01:33:45.318Z,99276.33
2019-05-07T01:38:52.236Z,99271.25
2019-05-07T01:43:57.915Z,99276.12
2019-05-07T01:49:04.702Z,99268.43
2019-05-07T01:54:10.267Z,99265.76
2019-05-07T01:59:16.119Z,99267.86
2019-05-07T02:04:47.117Z,99269.37
2019-05-07T02:09:58.326Z,99266.05
2019-05-07T02:15:07.042Z,99257.75
2019-05-07T02:20:13.185Z,99264.13
2019-05-07T02:25:22.057Z,99269.95
2019-05-07T02:30:27.150Z,99266.70
2019-05-07T02:35:33.519Z,99270.63
2019-05-07T02:40:44.746Z,99248.11
2019-05-07T02:46:17.541Z,99267.85
2019-05-07T02:51:14.306Z,99254.69
2019-05-07T02:56:19.863Z,99253.36
2019-05-07T03:01:25.535Z,99252.22
2019-05-07T03:06:33.936Z,99249.92
2019-05-07T03:11:39.791Z,99250.70
2019-05-07T03:16:53.726Z,99246.89
2019-05-07T03:21:57.882Z,99255.24
2019-05-07T03:27:03.652Z,99244.88
2019-05-07T03:32:38.838Z,99245.09
2019-05-07T03:37:44.871Z,99243.84
2019-05-07T03:42:53.202Z,99256.03
2019-05-07T03:48:19.525Z,99254.31
2019-05-07T03:53:25.303Z,99264.44
2019-05-07T03:58:43.280Z,99255.45
2019-05-07T04:03:55.084Z,99258.69
2019-05-07T04:08:57.544Z,99261.16
2019-05-07T04:14:06.467Z,99266.32
2019-05-07T04:19:13.289Z,99273.34
2019-05-07T04:24:29.886Z,99277.19
2019-05-07T04:29:35.460Z,99271.78
2019-05-07T04:34:54.075Z,99279.55
2019-05-07T04:40:02.905Z,99280.27
2019-05-07T04:45:09.118Z,99284.35
2019-05-07T04:50:34.801Z,99282.23
2019-05-07T04:55:25.161Z,99286.27
2019-05-07T05:00:33.358Z,99284.19
2019-05-07T05:05:38.328Z,99291.70
2019-05-07T05:10:43.769Z,99295.38
2019-05-07T05:15:49.312Z,99294.38
2019-05-07T05:21:12.505Z,99298.28
2019-05-07T05:26:21.879Z,99301.82
2019-05-07T05:31:29.184Z,99302.73
2019-05-07T05:36:34.674Z,99301.98
2019-05-07T05:41:45.223Z,99293.72
2019-05-07T05:46:52.537Z,99300.70
2019-05-07T05:52:17.483Z,99301.72
2019-05-07T05:57:51.942Z,99303.64
2019-05-07T06:03:27.501Z,99303.05
2019-05-07T06:08:43.404Z,99304.98
2019-05-07T06:14:09.521Z,99307.68
2019-05-07T06:19:23.627Z,99307.41
2019-05-07T06:24:52.163Z,99319.70
2019-05-07T06:29:57.754Z,99317.83
2019-05-07T06:35:04.088Z,99316.73
2019-05-07T06:40:30.162Z,99311.02
2019-05-07T06:45:46.346Z,99313.59
2019-05-07T06:50:58.445Z,99322.39
2019-05-07T06:56:04.928Z,99318.41
2019-05-07T07:01:35.376Z,99329.03
2019-05-07T07:07:03.129Z,99327.47
2019-05-07T07:12:13.055Z,99328.91
2019-05-07T07:17:23.614Z,99321.58
2019-05-07T07:22:31.327Z,99325.81
2019-05-07T07:27:38.155Z,99327.82
2019-05-07T07:32:46.428Z,99329.92
2019-05-07T07:37:53.052Z,99328.63
2019-05-07T07:43:03.083Z,99334.32
2019-05-07T07:48:08.630Z,99324.45
2019-05-07T07:53:15.729Z,99331.14
2019-05-07T07:58:43.050Z,99333.26
2019-05-07T08:03:48.512Z,99325.74
2019-05-07T08:08:55.188Z,99322.77
2019-05-07T08:14:02.304Z,99320.95
2019-05-07T08:19:21.763Z,99326.37
2019-05-07T08:24:22.579Z,99329.64
2019-05-07T08:29:32.293Z,99324.27
2019-05-07T08:34:44.908Z,99330.29
2019-05-07T08:39:52.037Z,99331.84
2019-05-07T08:45:11.995Z,99334.08
2019-05-07T08:50:22.302Z,99320.39
2019-05-07T08:55:27.863Z,99317.80
2019-05-07T09:00:36.813Z,99318.41
2019-05-07T09:05:42.683Z,99308.11
2019-05-07T09:10:48.688Z,99304.22
2019-05-07T09:15:55.863Z,99305.84
2019-05-07T09:21:02.203Z,99299.31
2019-05-07T09:26:10.467Z,99298.83
2019-05-07T09:31:22.650Z,99307.16
2019-05-07T09:36:34.461Z,99323.05
2019-05-07T09:41:41.766Z,99320.36
2019-05-07T09:46:47.526Z,99313.09
2019-05-07T09:51:53.298Z,99321.37
2019-05-07T09:56:58.893Z,99314.70
2019-05-07T10:02:05.091Z,99322.20
2019-05-07T10:07:12.633Z,99321.12
2019-05-07T10:12:28.231Z,99319.07
2019-05-07T10:17:40.207Z,99317.26
2019-05-07T10:22:45.824Z,99313.64
2019-05-07T10:27:53.210Z,99306.41
2019-05-07T10:33:01.657Z,99302.31
2019-05-07T10:38:07.200Z,99322.95
2019-05-07T10:43:12.875Z,99320.73
2019-05-07T10:48:25.188Z,99312.73
2019-05-07T10:53:32.043Z,99318.73
2019-05-07T10:58:38.278Z,99319.03
2019-05-07T11:03:43.826Z,99318.58
2019-05-07T11:08:51.405Z,99311.47
2019-05-07T11:13:57.466Z,99311.97
2019-05-07T11:19:04.924Z,99311.20
2019-05-07T11:24:12.126Z,99310.66
2019-05-07T11:29:17.950Z,99307.16
2019-05-07T11:34:23.555Z,99291.79
2019-05-07T11:39:29.127Z,99303.38
2019-05-07T11:44:34.656Z,99301.92
2019-05-07T11:49:58.269Z,99300.31
2019-05-07T11:55:05.823Z,99293.39
2019-05-07T12:00:23.620Z,99294.95
2019-05-07T12:05:29.752Z,99293.00
2019-05-07T12:10:35.291Z,99291.69
2019-05-07T12:15:52.144Z,99291.08
2019-05-07T12:21:02.466Z,99289.63
2019-05-07T12:26:07.527Z,99292.72
2019-05-07T12:31:31.177Z,99282.19
2019-05-07T12:36:36.730Z,99280.97
2019-05-07T12:41:42.284Z,99280.79
2019-05-07T12:46:47.829Z,99274.68
2019-05-07T12:52:18.823Z,99267.81
2019-05-07T12:57:26.551Z,99258.17
2019-05-07T13:02:43.949Z,99259.23
2019-05-07T13:07:58.317Z,99260.11
2019-05-07T13:13:04.094Z,99249.70
2019-05-07T13:18:12.680Z,99241.83
2019-05-07T13:23:22.493Z,99238.94
2019-05-07T13:28:30.175Z,99231.56
2019-05-07T13:33:37.507Z,99230.06
2019-05-07T13:38:56.587Z,99215.91
2019-05-07T13:44:35.147Z,99215.97
2019-05-07T13:49:42.777Z,99211.62
2019-05-07T13:54:48.492Z,99211.59
2019-05-07T13:59:58.079Z,99218.83
2019-05-07T14:05:03.829Z,99206.59
2019-05-07T14:10:12.417Z,99203.55
2019-05-07T14:15:17.322Z,99190.47
2019-05-07T14:20:23.681Z,99186.22
2019-05-07T14:25:29.190Z,99195.27
2019-05-07T14:30:34.765Z,99183.75
2019-05-07T14:35:49.125Z,99189.45
2019-05-07T14:40:54.715Z,99190.59
2019-05-07T14:46:02.719Z,99184.88
2019-05-07T14:51:08.969Z,99178.64
2019-05-07T14:56:16.646Z,99179.36
2019-05-07T15:01:22.661Z,99172.70
2019-05-07T15:06:46.744Z,99167.83
2019-05-07T15:11:54.563Z,99162.53
2019-05-07T15:17:09.479Z,99161.80
2019-05-07T15:22:45.801Z,99159.14
2019-05-07T15:27:38.764Z,99154.39
2019-05-07T15:32:52.129Z,99157.14
2019-05-07T15:37:59.682Z,99150.61
2019-05-07T15:43:12.982Z,99150.55
2019-05-07T15:48:18.935Z,99145.23
2019-05-07T15:53:53.882Z,99149.32
2019-05-07T15:58:59.444Z,99146.21
2019-05-07T16:04:19.083Z,99142.23
2019-05-07T16:09:16.993Z,99141.04
2019-05-07T16:14:26.710Z,99138.66
2019-05-07T16:19:35.144Z,99136.67
2019-05-07T16:24:41.997Z,99131.06
2019-05-07T16:29:52.520Z,99132.33
2019-05-07T16:35:05.651Z,99135.66
2019-05-07T16:40:12.818Z,99113.89
2019-05-07T16:45:19.064Z,99130.03
2019-05-07T16:50:37.842Z,99132.73
2019-05-07T16:55:43.754Z,99133.56
2019-05-07T17:00:54.065Z,99139.16
2019-05-07T17:06:05.199Z,99136.11
2019-05-07T17:11:12.455Z,99139.83
2019-05-07T17:16:26.970Z,99140.31
2019-05-07T17:21:42.894Z,99139.84
2019-05-07T17:26:51.280Z,99141.83
2019-05-07T17:31:57.329Z,99142.67
2019-05-07T17:37:05.571Z,99148.20
2019-05-07T17:47:21.847Z,99146.13
2019-05-07T17:52:34.433Z,99152.58
2019-05-07T17:57:41.778Z,99151.64
2019-05-07T18:03:08.101Z,99148.59
2019-05-07T18:08:17.212Z,99147.28
2019-05-07T18:13:32.388Z,99149.69
2019-05-07T18:18:38.056Z,99152.42
2019-05-07T18:23:43.830Z,99146.52
2019-05-07T18:28:54.871Z,99142.97
2019-05-07T18:34:05.998Z,99153.37
2019-05-07T18:39:19.918Z,99143.72
2019-05-07T18:44:28.747Z,99147.37
2019-05-07T18:49:35.313Z,99146.45
2019-05-07T18:54:47.936Z,99145.77
2019-05-07T18:59:56.218Z,99151.53
2019-05-07T19:05:07.867Z,99152.73
2019-05-07T19:10:39.564Z,99150.88
2019-05-07T19:15:47.841Z,99152.69
2019-05-07T19:20:54.031Z,99157.75
2019-05-07T19:26:04.296Z,99152.07
2019-05-07T19:31:12.704Z,99148.88
2019-05-07T19:36:19.175Z,99141.50
2019-05-07T19:41:25.318Z,99148.52
2019-05-07T19:46:32.281Z,99144.27
2019-05-07T19:51:42.907Z,99139.30
2019-05-07T19:56:57.088Z,99140.10
2019-05-07T20:02:12.249Z,99131.64
2019-05-07T20:07:22.270Z,99133.86
2019-05-07T20:12:36.367Z,99130.64
2019-05-07T20:17:47.636Z,99134.06
2019-05-07T20:22:59.396Z,99125.22
2019-05-07T20:28:07.578Z,99125.40
2019-05-07T20:33:14.531Z,99120.23
2019-05-07T20:38:22.270Z,99112.15
2019-05-07T20:43:27.928Z,99113.33
2019-05-07T20:48:35.096Z,99095.97
2019-05-07T20:54:17.355Z,99116.73
2019-05-07T20:59:25.811Z,99106.95
2019-05-07T21:04:33.058Z,99104.08
2019-05-07T21:09:42.120Z,99104.66
2019-05-07T21:14:47.720Z,99102.38
2019-05-07T21:19:54.940Z,99097.01
2019-05-07T21:25:02.687Z,99102.29
2019-05-07T21:30:08.284Z,99103.86
2019-05-07T21:35:14.918Z,99095.66
2019-05-07T21:40:22.426Z,99093.72
2019-05-07T21:45:28.141Z,99089.77
2019-05-07T21:50:33.697Z,99094.72
2019-05-07T21:56:01.721Z,99085.87
2019-05-07T22:01:09.462Z,99077.20
2019-05-07T22:06:22.481Z,99078.92
2019-05-07T22:11:32.389Z,99085.31
2019-05-07T22:16:39.162Z,99082.00
2019-05-07T22:21:44.666Z,99074.46
2019-05-07T22:26:50.169Z,99072.92
2019-05-07T22:32:32.759Z,99069.05
2019-05-07T22:37:46.601Z,99062.98
2019-05-07T22:43:06.486Z,99064.16
2019-05-07T22:48:12.324Z,99057.55
2019-05-07T22:53:18.122Z,99050.03
2019-05-07T22:58:38.000Z,99052.38
2019-05-07T23:03:43.539Z,99046.72
2019-05-07T23:08:52.901Z,99047.34
2019-05-07T23:13:58.799Z,99041.09
2019-05-07T23:19:07.624Z,99042.02
2019-05-07T23:24:13.143Z,99028.94
2019-05-07T23:29:18.636Z,99032.14
2019-05-07T23:34:26.497Z,99015.30
2019-05-07T23:39:34.101Z,99009.82
2019-05-07T23:44:42.023Z,99000.25
2019-05-07T23:49:52.396Z,98994.21
2019-05-07T23:55:02.853Z,98983.77
